createdAt,value
2023-03-27T00:00:42.890Z,0.47
2023-03-27T00:03:11.943Z,0.70
2023-03-27T00:05:39.197Z,0.50
2023-03-27T00:08:09.403Z,0.60
2023-03-27T00:10:37.264Z,0.50
2023-03-27T00:13:05.701Z,0.70
2023-03-27T00:15:34.431Z,0.85
2023-03-27T00:18:04.036Z,1.05
2023-03-27T00:20:42.628Z,0.70
2023-03-27T00:23:09.431Z,0.95
2023-03-27T00:25:37.065Z,0.60
2023-03-27T00:28:03.901Z,0.50
2023-03-27T00:30:31.461Z,0.60
2023-03-27T00:32:58.859Z,0.40
2023-03-27T00:35:28.242Z,0.30
2023-03-27T00:37:56.093Z,0.55
2023-03-27T00:40:22.849Z,0.50
2023-03-27T00:42:52.024Z,0.38
2023-03-27T00:45:28.851Z,0.60
2023-03-27T00:48:04.037Z,0.50
2023-03-27T00:50:39.938Z,0.68
2023-03-27T00:53:12.393Z,0.60
2023-03-27T00:55:42.545Z,0.80
2023-03-27T00:58:16.386Z,0.90
2023-03-27T01:00:43.919Z,1.65
2023-03-27T01:03:11.797Z,1.45
2023-03-27T01:05:38.754Z,1.65
2023-03-27T01:08:06.316Z,1.15
2023-03-27T01:10:45.659Z,1.33
2023-03-27T01:13:12.502Z,0.95
2023-03-27T01:15:54.878Z,0.85
2023-03-27T01:18:53.426Z,0.80
2023-03-27T01:21:33.002Z,0.50
2023-03-27T01:24:28.119Z,0.80
2023-03-27T01:27:16.259Z,0.70
2023-03-27T01:30:09.084Z,0.70
2023-03-27T01:33:04.791Z,0.65
2023-03-27T01:36:08.345Z,0.90
2023-03-27T01:39:06.575Z,0.63
2023-03-27T01:41:52.214Z,0.80
2023-03-27T01:44:45.217Z,0.70
2023-03-27T01:47:18.810Z,0.70
2023-03-27T01:50:01.104Z,0.90
2023-03-27T01:52:31.835Z,0.40
2023-03-27T01:55:05.113Z,0.75
2023-03-27T01:57:49.473Z,0.50
2023-03-27T02:00:22.642Z,0.60
2023-03-27T02:03:08.240Z,0.70
2023-03-27T02:05:41.502Z,0.68
2023-03-27T02:08:20.901Z,0.52
2023-03-27T02:10:55.822Z,0.40
2023-03-27T02:13:36.785Z,0.60
2023-03-27T02:16:06.476Z,0.88
2023-03-27T02:18:37.241Z,0.88
2023-03-27T02:21:05.270Z,0.70
2023-03-27T02:23:32.932Z,0.65
2023-03-27T02:26:00.432Z,0.70
2023-03-27T02:28:57.366Z,0.60
2023-03-27T02:31:35.148Z,0.90
2023-03-27T02:34:21.858Z,0.88
2023-03-27T02:36:55.596Z,0.82
2023-03-27T02:39:48.938Z,0.85
2023-03-27T02:42:44.585Z,0.82
2023-03-27T02:45:21.782Z,0.75
2023-03-27T02:47:57.228Z,0.80
2023-03-27T02:50:38.179Z,1.02
2023-03-27T02:53:13.874Z,0.70
2023-03-27T02:55:45.853Z,0.90
2023-03-27T02:58:19.679Z,0.70
2023-03-27T03:00:58.401Z,0.80
2023-03-27T03:03:57.822Z,0.70
2023-03-27T03:06:37.251Z,0.85
2023-03-27T03:09:07.859Z,0.80
2023-03-27T03:11:36.413Z,0.90
2023-03-27T03:14:03.281Z,0.70
2023-03-27T03:16:30.481Z,0.82
2023-03-27T03:18:57.333Z,0.50
2023-03-27T03:21:24.433Z,0.70
2023-03-27T03:23:58.565Z,0.93
2023-03-27T03:26:27.920Z,0.77
2023-03-27T03:28:59.841Z,1.00
2023-03-27T03:31:43.697Z,0.95
2023-03-27T03:34:19.072Z,0.75
2023-03-27T03:36:50.067Z,0.82
2023-03-27T03:39:22.959Z,0.57
2023-03-27T03:41:50.349Z,0.82
2023-03-27T03:44:17.744Z,0.90
2023-03-27T03:46:44.711Z,0.90
2023-03-27T03:49:12.011Z,0.65
2023-03-27T03:51:39.065Z,0.65
2023-03-27T03:54:07.134Z,0.70
2023-03-27T03:56:34.490Z,0.70
2023-03-27T03:59:01.583Z,0.52
2023-03-27T04:01:28.867Z,0.80
2023-03-27T04:04:04.721Z,0.65
2023-03-27T04:06:51.070Z,0.80
2023-03-27T04:09:17.999Z,0.80
2023-03-27T04:12:07.851Z,0.90
2023-03-27T04:14:55.071Z,0.73
2023-03-27T04:17:42.340Z,0.77
2023-03-27T04:22:46.346Z,0.70
2023-03-27T04:25:17.458Z,0.75
2023-03-27T04:27:45.163Z,0.90
2023-03-27T04:30:23.455Z,0.73
2023-03-27T04:33:19.496Z,0.80
2023-03-27T04:36:07.860Z,0.60
2023-03-27T04:38:45.694Z,0.70
2023-03-27T04:41:14.695Z,0.65
2023-03-27T04:43:42.038Z,0.80
2023-03-27T04:46:09.540Z,0.98
2023-03-27T04:48:39.096Z,0.82
2023-03-27T04:51:32.430Z,0.82
2023-03-27T04:53:59.968Z,1.00
2023-03-27T04:56:27.077Z,0.80
2023-03-27T04:58:55.340Z,1.10
2023-03-27T05:01:23.034Z,0.70
2023-03-27T05:04:10.344Z,0.88
2023-03-27T05:06:49.750Z,0.80
2023-03-27T05:09:17.883Z,1.10
2023-03-27T05:11:49.589Z,0.80
2023-03-27T05:14:21.767Z,1.08
2023-03-27T05:16:50.686Z,1.17
2023-03-27T05:19:22.064Z,1.52
2023-03-27T05:21:56.992Z,1.95
2023-03-27T05:24:24.013Z,1.17
2023-03-27T05:26:51.081Z,1.20
2023-03-27T05:29:19.016Z,1.10
2023-03-27T05:31:48.953Z,1.00
2023-03-27T05:34:34.736Z,1.50
2023-03-27T05:37:05.858Z,1.83
2023-03-27T05:39:37.972Z,1.80
2023-03-27T05:42:08.809Z,2.28
2023-03-27T05:44:35.601Z,2.40
2023-03-27T05:47:02.932Z,2.60
2023-03-27T05:49:33.564Z,2.60
2023-03-27T05:52:09.633Z,3.03
2023-03-27T05:54:36.675Z,3.40
2023-03-27T05:57:08.180Z,2.95
2023-03-27T05:59:35.930Z,2.95
2023-03-27T06:02:21.134Z,2.92
2023-03-27T06:07:30.324Z,2.60
2023-03-27T06:10:03.085Z,2.47
2023-03-27T06:12:32.807Z,2.28
2023-03-27T06:15:11.394Z,2.83
2023-03-27T06:17:47.562Z,2.45
2023-03-27T06:20:15.629Z,2.80
2023-03-27T06:22:55.734Z,2.47
2023-03-27T06:25:34.559Z,3.30
2023-03-27T06:28:04.841Z,2.60
2023-03-27T06:30:39.592Z,2.78
2023-03-27T06:33:35.268Z,2.97
2023-03-27T06:36:06.638Z,3.00
2023-03-27T06:38:35.531Z,3.22
2023-03-27T06:41:02.854Z,3.28
2023-03-27T06:43:49.271Z,3.08
2023-03-27T06:46:42.798Z,2.92
2023-03-27T06:49:30.117Z,2.08
2023-03-27T06:51:57.471Z,2.13
2023-03-27T06:54:24.361Z,2.05
2023-03-27T06:56:53.889Z,2.38
2023-03-27T06:59:22.046Z,2.15
2023-03-27T07:01:54.339Z,1.40
2023-03-27T07:04:35.269Z,1.50
2023-03-27T07:07:08.841Z,1.25
2023-03-27T07:09:40.209Z,0.98
2023-03-27T07:12:09.248Z,0.80
2023-03-27T07:14:37.796Z,0.70
2023-03-27T07:17:04.799Z,0.93
2023-03-27T07:19:48.879Z,0.50
2023-03-27T07:22:17.393Z,0.70
2023-03-27T07:24:44.780Z,0.80
2023-03-27T07:27:11.621Z,0.70
2023-03-27T07:29:39.051Z,0.60
2023-03-27T07:32:09.130Z,0.80
2023-03-27T07:34:42.473Z,0.63
2023-03-27T07:37:09.361Z,0.85
2023-03-27T07:39:39.970Z,0.88
2023-03-27T07:42:07.416Z,0.80
2023-03-27T07:44:48.858Z,0.70
2023-03-27T07:47:15.837Z,0.80
2023-03-27T07:49:43.201Z,0.57
2023-03-27T07:52:14.709Z,0.80
2023-03-27T07:54:51.834Z,0.73
2023-03-27T07:57:21.939Z,0.90
2023-03-27T07:59:52.600Z,0.90
2023-03-27T08:02:27.794Z,0.55
2023-03-27T08:04:56.153Z,0.82
2023-03-27T08:07:24.572Z,0.70
2023-03-27T08:09:53.862Z,0.73
2023-03-27T08:12:22.050Z,0.70
2023-03-27T08:14:56.731Z,0.60
2023-03-27T08:17:27.600Z,0.68
2023-03-27T08:19:56.003Z,0.80
2023-03-27T08:22:24.750Z,0.60
2023-03-27T08:25:18.351Z,0.60
2023-03-27T08:27:45.743Z,0.70
2023-03-27T08:30:16.854Z,0.60
2023-03-27T08:32:44.411Z,0.70
2023-03-27T08:35:12.240Z,0.50
2023-03-27T08:37:41.442Z,0.60
2023-03-27T08:40:30.931Z,0.60
2023-03-27T08:43:28.890Z,0.47
2023-03-27T08:46:08.810Z,0.52
2023-03-27T08:48:48.500Z,0.50
2023-03-27T08:51:22.575Z,0.40
2023-03-27T08:53:49.386Z,0.45
2023-03-27T08:56:21.377Z,0.45
2023-03-27T08:58:52.873Z,0.57
2023-03-27T09:01:31.205Z,0.50
2023-03-27T09:04:14.066Z,0.50
2023-03-27T09:07:05.836Z,0.40
2023-03-27T09:09:46.461Z,0.80
2023-03-27T09:12:37.460Z,4.47
2023-03-27T09:15:26.147Z,1.02
2023-03-27T09:18:16.515Z,0.70
2023-03-27T09:23:21.986Z,2.60
2023-03-27T09:26:34.532Z,0.82
2023-03-27T09:29:19.960Z,5.15
2023-03-27T09:31:56.419Z,10.57
2023-03-27T09:34:27.932Z,15.55
2023-03-27T09:36:56.119Z,2.63
2023-03-27T09:39:32.119Z,1.20
2023-03-27T09:42:31.409Z,0.70
2023-03-27T09:45:03.453Z,0.63
2023-03-27T09:47:59.886Z,0.60
2023-03-27T09:50:45.861Z,0.70
2023-03-27T09:53:43.085Z,0.60
2023-03-27T09:56:20.443Z,0.55
2023-03-27T09:58:53.897Z,0.30
2023-03-27T10:01:37.995Z,0.60
2023-03-27T10:04:17.752Z,0.50
2023-03-27T10:07:01.689Z,0.52
2023-03-27T10:09:42.831Z,0.45
2023-03-27T10:12:18.329Z,0.60
2023-03-27T10:14:52.391Z,0.50
2023-03-27T10:17:33.347Z,0.70
2023-03-27T10:20:17.604Z,0.60
2023-03-27T10:23:49.765Z,0.70
2023-03-27T10:26:43.357Z,0.70
2023-03-27T10:29:43.092Z,1.10
2023-03-27T10:32:14.860Z,0.75
2023-03-27T10:35:03.237Z,1.10
2023-03-27T10:37:50.813Z,0.80
2023-03-27T10:40:39.298Z,0.70
2023-03-27T10:43:46.412Z,0.68
2023-03-27T10:46:22.944Z,0.77
2023-03-27T10:48:59.790Z,0.90
2023-03-27T10:51:53.385Z,1.00
2023-03-27T10:55:05.255Z,0.80
2023-03-27T10:57:38.269Z,0.90
2023-03-27T11:00:16.697Z,1.10
2023-03-27T11:03:09.992Z,0.70
2023-03-27T11:05:47.305Z,0.70
2023-03-27T11:09:17.284Z,0.90
2023-03-27T11:12:14.573Z,0.77
2023-03-27T11:15:01.022Z,0.50
2023-03-27T11:17:40.486Z,0.80
2023-03-27T11:21:13.027Z,0.73
2023-03-27T11:23:58.243Z,0.50
2023-03-27T11:27:08.052Z,0.43
2023-03-27T11:29:48.136Z,0.40
2023-03-27T11:32:27.312Z,0.47
2023-03-27T11:35:02.723Z,0.60
2023-03-27T11:37:57.821Z,0.50
2023-03-27T11:40:28.215Z,0.45
2023-03-27T11:43:01.465Z,0.40
2023-03-27T11:45:57.078Z,0.30
2023-03-27T11:48:58.023Z,0.35
2023-03-27T11:51:57.744Z,0.35
2023-03-27T11:54:33.429Z,0.45
2023-03-27T11:57:20.348Z,0.43
2023-03-27T11:59:55.232Z,0.20
2023-03-27T12:03:00.917Z,0.45
2023-03-27T12:06:04.659Z,0.80
2023-03-27T12:08:58.778Z,0.40
2023-03-27T12:11:29.980Z,0.40
2023-03-27T12:14:02.411Z,0.57
2023-03-27T12:16:59.354Z,0.50
2023-03-27T12:19:50.708Z,0.50
2023-03-27T12:22:34.954Z,0.50
2023-03-27T12:25:50.891Z,0.50
2023-03-27T12:29:23.709Z,0.50
2023-03-27T12:32:23.705Z,0.45
2023-03-27T12:34:56.636Z,0.60
2023-03-27T12:37:34.714Z,0.73
2023-03-27T12:40:02.128Z,0.75
2023-03-27T12:42:54.403Z,0.98
2023-03-27T12:45:28.042Z,0.88
2023-03-27T12:48:11.851Z,0.70
2023-03-27T12:50:46.917Z,0.70
2023-03-27T12:53:40.019Z,0.47
2023-03-27T12:56:09.785Z,0.63
2023-03-27T12:58:38.323Z,0.82
2023-03-27T13:01:51.547Z,0.80
2023-03-27T13:05:13.455Z,0.73
2023-03-27T13:07:54.235Z,0.60
2023-03-27T13:10:47.312Z,0.73
2023-03-27T13:13:33.740Z,0.80
2023-03-27T13:16:30.465Z,0.80
2023-03-27T13:19:23.046Z,0.80
2023-03-27T13:22:45.596Z,1.17
2023-03-27T13:25:32.140Z,1.00
2023-03-27T13:28:34.726Z,1.10
2023-03-27T13:31:15.808Z,1.05
2023-03-27T13:34:13.884Z,1.13
2023-03-27T13:36:50.861Z,1.55
2023-03-27T13:39:41.571Z,1.38
2023-03-27T13:42:13.830Z,1.17
2023-03-27T13:44:54.806Z,1.15
2023-03-27T13:47:33.977Z,1.20
2023-03-27T13:50:24.253Z,1.30
2023-03-27T13:56:10.360Z,1.42
2023-03-27T13:59:45.147Z,1.58
2023-03-27T14:02:50.944Z,1.92
2023-03-27T14:06:10.768Z,1.52
2023-03-27T14:09:22.082Z,1.83
2023-03-27T14:12:31.536Z,1.50
2023-03-27T14:15:39.125Z,1.77
2023-03-27T14:19:29.779Z,1.63
2023-03-27T14:22:42.686Z,1.55
2023-03-27T14:25:32.951Z,1.92
2023-03-27T14:28:47.051Z,1.80
2023-03-27T14:32:06.274Z,1.67
2023-03-27T14:35:11.142Z,1.73
2023-03-27T14:37:45.083Z,1.50
2023-03-27T14:40:41.447Z,1.85
2023-03-27T14:43:13.776Z,1.60
2023-03-27T14:45:41.254Z,1.67
2023-03-27T14:48:19.957Z,2.03
2023-03-27T14:50:51.591Z,1.52
2023-03-27T14:53:27.423Z,1.70
2023-03-27T14:56:26.570Z,1.73
2023-03-27T15:02:45.400Z,1.80
2023-03-27T15:06:41.287Z,2.10
2023-03-27T15:15:57.630Z,1.52
2023-03-27T15:18:49.395Z,1.67
2023-03-27T15:21:34.799Z,2.20
2023-03-27T15:24:10.795Z,2.47
2023-03-27T15:26:39.368Z,1.98
2023-03-27T15:29:07.699Z,1.92
2023-03-27T15:31:36.468Z,2.28
2023-03-27T15:34:09.019Z,1.92
2023-03-27T15:36:39.685Z,1.80
2023-03-27T15:39:07.793Z,1.80
2023-03-27T15:41:36.416Z,1.83
2023-03-27T15:44:18.235Z,1.63
2023-03-27T15:46:57.486Z,2.03
2023-03-27T15:49:52.430Z,1.90
2023-03-27T15:52:33.680Z,2.63
2023-03-27T15:55:09.609Z,2.58
2023-03-27T15:57:36.473Z,2.00
2023-03-27T16:00:08.986Z,1.45
2023-03-27T16:02:42.293Z,1.35
2023-03-27T16:05:17.207Z,1.92
2023-03-27T16:07:47.335Z,2.17
2023-03-27T16:13:03.855Z,1.35
2023-03-27T16:15:40.629Z,1.40
2023-03-27T16:18:21.951Z,1.40
2023-03-27T16:20:49.356Z,1.05
2023-03-27T16:23:16.570Z,1.60
2023-03-27T16:25:43.942Z,1.40
2023-03-27T16:28:12.396Z,1.40
2023-03-27T16:30:41.109Z,1.50
2023-03-27T16:33:22.433Z,1.30
2023-03-27T16:35:50.897Z,1.13
2023-03-27T16:38:18.178Z,1.00
2023-03-27T16:40:45.803Z,1.40
2023-03-27T16:43:12.551Z,1.30
2023-03-27T16:45:40.825Z,1.35
2023-03-27T16:48:09.392Z,1.35
2023-03-27T16:50:37.362Z,1.20
2023-03-27T16:53:05.234Z,1.10
2023-03-27T16:55:32.034Z,0.60
2023-03-27T16:57:59.321Z,0.73
2023-03-27T17:00:27.142Z,1.20
2023-03-27T17:02:54.217Z,0.98
2023-03-27T17:05:21.231Z,1.05
2023-03-27T17:07:48.364Z,1.10
2023-03-27T17:10:15.882Z,0.82
2023-03-27T17:12:43.126Z,0.90
2023-03-27T17:15:10.457Z,0.95
2023-03-27T17:17:37.461Z,0.90
2023-03-27T17:20:07.593Z,1.55
2023-03-27T17:22:34.474Z,0.98
2023-03-27T17:25:03.316Z,0.95
2023-03-27T17:27:30.132Z,1.05
2023-03-27T17:29:57.537Z,1.10
2023-03-27T17:32:26.243Z,0.80
2023-03-27T17:34:53.401Z,0.93
2023-03-27T17:37:21.352Z,1.00
2023-03-27T17:39:48.568Z,0.90
2023-03-27T17:42:15.971Z,1.00
2023-03-27T17:44:44.551Z,0.90
2023-03-27T17:47:11.629Z,1.00
2023-03-27T17:49:38.361Z,1.00
2023-03-27T17:52:08.322Z,0.93
2023-03-27T17:57:02.148Z,1.00
2023-03-27T17:59:31.377Z,1.05
2023-03-27T18:01:58.762Z,0.90
2023-03-27T18:04:25.860Z,1.00
2023-03-27T18:06:52.942Z,0.90
2023-03-27T18:09:19.846Z,1.10
2023-03-27T18:11:47.078Z,0.90
2023-03-27T18:14:13.923Z,0.93
2023-03-27T18:16:40.822Z,0.90
2023-03-27T18:19:08.888Z,1.00
2023-03-27T18:21:36.123Z,0.98
2023-03-27T18:24:05.620Z,1.00
2023-03-27T18:26:32.405Z,1.00
2023-03-27T18:28:59.543Z,0.90
2023-03-27T18:31:26.644Z,1.00
2023-03-27T18:33:53.424Z,0.98
2023-03-27T18:36:20.443Z,0.90
2023-03-27T18:38:49.702Z,1.10
2023-03-27T18:41:17.227Z,1.33
2023-03-27T18:43:44.418Z,0.90
2023-03-27T18:46:16.701Z,1.20
2023-03-27T18:48:45.646Z,0.90
2023-03-27T18:51:12.590Z,1.20
2023-03-27T18:53:39.435Z,0.98
2023-03-27T18:56:06.670Z,1.02
2023-03-27T18:58:33.907Z,1.05
2023-03-27T19:01:00.942Z,1.95
2023-03-27T19:03:30.542Z,1.00
2023-03-27T19:06:01.897Z,0.88
2023-03-27T19:08:28.743Z,1.08
2023-03-27T19:10:58.402Z,1.23
2023-03-27T19:13:43.938Z,1.20
2023-03-27T19:16:29.460Z,1.00
2023-03-27T19:19:15.093Z,1.10
2023-03-27T19:22:02.143Z,1.00
2023-03-27T19:24:40.254Z,1.15
2023-03-27T19:27:07.466Z,0.93
2023-03-27T19:29:51.548Z,1.30
2023-03-27T19:32:18.294Z,1.30
2023-03-27T19:34:45.139Z,1.52
2023-03-27T19:37:12.138Z,1.10
2023-03-27T19:39:38.958Z,1.42
2023-03-27T19:42:05.889Z,1.40
2023-03-27T19:47:03.776Z,1.55
2023-03-27T19:49:30.886Z,1.10
2023-03-27T19:52:20.129Z,1.23
2023-03-27T19:54:47.270Z,1.40
2023-03-27T19:57:14.643Z,1.50
2023-03-27T19:59:41.476Z,1.23
2023-03-27T20:02:11.746Z,1.27
2023-03-27T20:04:39.025Z,1.55
2023-03-27T20:07:07.619Z,1.23
2023-03-27T20:09:34.719Z,1.15
2023-03-27T20:12:02.200Z,1.23
2023-03-27T20:14:29.330Z,1.40
2023-03-27T20:16:56.364Z,1.50
2023-03-27T20:19:28.666Z,1.10
2023-03-27T20:21:59.665Z,1.15
2023-03-27T20:26:58.389Z,1.45
2023-03-27T20:29:26.276Z,1.10
2023-03-27T20:31:53.072Z,1.10
2023-03-27T20:34:22.546Z,1.17
2023-03-27T20:36:53.128Z,1.30
2023-03-27T20:39:33.641Z,1.00
2023-03-27T20:42:00.531Z,1.27
2023-03-27T20:44:35.247Z,1.17
2023-03-27T20:47:11.252Z,1.20
2023-03-27T20:49:45.655Z,1.17
2023-03-27T20:52:17.453Z,0.90
2023-03-27T20:54:44.783Z,1.10
2023-03-27T20:57:13.899Z,1.00
2023-03-27T20:59:40.916Z,1.20
2023-03-27T21:02:13.758Z,1.20
2023-03-27T21:04:40.561Z,1.30
2023-03-27T21:07:09.654Z,1.05
2023-03-27T21:09:38.194Z,0.90
2023-03-27T21:12:05.461Z,1.23
2023-03-27T21:14:32.439Z,1.02
2023-03-27T21:16:59.251Z,0.80
2023-03-27T21:19:26.144Z,0.88
2023-03-27T21:21:52.985Z,0.77
2023-03-27T21:24:20.498Z,0.65
2023-03-27T21:26:48.517Z,1.10
2023-03-27T21:29:15.538Z,0.95
2023-03-27T21:31:42.409Z,0.90
2023-03-27T21:34:09.252Z,1.13
2023-03-27T21:36:38.091Z,0.93
2023-03-27T21:39:04.996Z,0.70
2023-03-27T21:41:32.052Z,0.98
2023-03-27T21:43:58.799Z,1.38
2023-03-27T21:46:25.607Z,1.10
2023-03-27T21:48:52.657Z,0.90
2023-03-27T21:51:19.935Z,0.80
2023-03-27T21:53:46.853Z,0.80
2023-03-27T21:56:14.144Z,0.80
2023-03-27T21:58:40.892Z,0.65
2023-03-27T22:01:07.769Z,0.93
2023-03-27T22:03:34.476Z,0.90
2023-03-27T22:06:12.592Z,0.93
2023-03-27T22:08:42.424Z,0.70
2023-03-27T22:11:10.453Z,0.90
2023-03-27T22:13:38.439Z,0.85
2023-03-27T22:16:11.081Z,0.90
2023-03-27T22:18:38.472Z,0.90
2023-03-27T22:21:13.871Z,0.98
2023-03-27T22:23:40.788Z,0.80
2023-03-27T22:26:07.664Z,0.80
2023-03-27T22:28:34.466Z,0.85
2023-03-27T22:31:01.473Z,1.15
2023-03-27T22:33:28.238Z,0.80
2023-03-27T22:35:55.068Z,0.90
2023-03-27T22:38:21.844Z,1.00
2023-03-27T22:40:48.572Z,0.73
2023-03-27T22:43:22.599Z,0.80
2023-03-27T22:45:51.096Z,1.10
2023-03-27T22:48:18.403Z,1.00
2023-03-27T22:50:52.458Z,0.98
2023-03-27T22:53:19.223Z,1.00
2023-03-27T22:55:50.034Z,0.80
2023-03-27T22:58:17.856Z,0.77
2023-03-27T23:00:49.534Z,1.27
2023-03-27T23:03:17.408Z,1.25
2023-03-27T23:05:48.242Z,1.08
2023-03-27T23:08:16.954Z,0.80
2023-03-27T23:10:44.173Z,1.25
2023-03-27T23:13:11.337Z,1.00
2023-03-27T23:15:38.886Z,1.02
2023-03-27T23:18:05.829Z,1.08
2023-03-27T23:20:32.763Z,1.08
2023-03-27T23:22:59.573Z,1.17
2023-03-27T23:25:26.328Z,0.98
2023-03-27T23:27:53.039Z,1.38
2023-03-27T23:30:19.902Z,0.98
2023-03-27T23:32:46.735Z,1.13
2023-03-27T23:35:13.560Z,0.75
2023-03-27T23:37:40.536Z,1.02
2023-03-27T23:40:08.049Z,0.77
2023-03-27T23:42:34.840Z,1.05
2023-03-27T23:45:01.648Z,0.65
2023-03-27T23:47:28.417Z,0.73
2023-03-27T23:49:55.242Z,1.00
2023-03-27T23:52:21.961Z,0.80
2023-03-27T23:54:48.681Z,0.70
2023-03-27T23:57:15.449Z,1.13
2023-03-27T23:59:42.262Z,0.80
